sensor_id;sensor_type;location;lat;lon;timestamp;P1;durP1;ratioP1;P2;durP2;ratioP2
14396;SDS011;50653;0.000;0.000;2022-08-25T00:03:36;7.90;;;5.20;;
14396;SDS011;50653;0.000;0.000;2022-08-25T00:06:03;5.00;;;4.70;;
14396;SDS011;50653;0.000;0.000;2022-08-25T00:08:30;5.73;;;5.27;;
14396;SDS011;50653;0.000;0.000;2022-08-25T00:10:58;5.43;;;5.13;;
14396;SDS011;50653;0.000;0.000;2022-08-25T00:13:25;4.80;;;4.60;;
14396;SDS011;50653;0.000;0.000;2022-08-25T00:15:52;4.20;;;4.00;;
14396;SDS011;50653;0.000;0.000;2022-08-25T00:18:18;4.77;;;4.57;;
14396;SDS011;50653;0.000;0.000;2022-08-25T00:20:44;5.53;;;5.20;;
14396;SDS011;50653;0.000;0.000;2022-08-25T00:23:11;4.97;;;4.67;;
14396;SDS011;50653;0.000;0.000;2022-08-25T00:25:37;5.47;;;5.03;;
14396;SDS011;50653;0.000;0.000;2022-08-25T00:28:03;5.50;;;5.20;;
14396;SDS011;50653;0.000;0.000;2022-08-25T00:30:29;5.47;;;5.07;;
14396;SDS011;50653;0.000;0.000;2022-08-25T00:32:55;4.63;;;4.33;;
14396;SDS011;50653;0.000;0.000;2022-08-25T00:35:20;6.07;;;5.60;;
14396;SDS011;50653;0.000;0.000;2022-08-25T00:37:47;4.50;;;4.30;;
14396;SDS011;50653;0.000;0.000;2022-08-25T00:40:13;4.60;;;4.40;;
14396;SDS011;50653;0.000;0.000;2022-08-25T00:42:39;5.40;;;5.00;;
14396;SDS011;50653;0.000;0.000;2022-08-25T00:45:06;5.43;;;5.23;;
14396;SDS011;50653;0.000;0.000;2022-08-25T00:47:33;5.13;;;4.87;;
14396;SDS011;50653;0.000;0.000;2022-08-25T00:50:00;7.40;;;5.53;;
14396;SDS011;50653;0.000;0.000;2022-08-25T00:52:40;5.30;;;5.10;;
14396;SDS011;50653;0.000;0.000;2022-08-25T00:55:18;5.53;;;5.10;;
14396;SDS011;50653;0.000;0.000;2022-08-25T00:57:47;5.73;;;5.27;;
14396;SDS011;50653;0.000;0.000;2022-08-25T01:00:23;4.80;;;4.47;;
14396;SDS011;50653;0.000;0.000;2022-08-25T01:02:55;4.67;;;4.47;;
14396;SDS011;50653;0.000;0.000;2022-08-25T01:05:22;4.67;;;4.37;;
14396;SDS011;50653;0.000;0.000;2022-08-25T01:07:48;5.73;;;5.33;;
14396;SDS011;50653;0.000;0.000;2022-08-25T01:10:16;4.87;;;4.67;;
14396;SDS011;50653;0.000;0.000;2022-08-25T01:12:43;4.50;;;4.30;;
14396;SDS011;50653;0.000;0.000;2022-08-25T01:15:09;4.97;;;4.70;;
14396;SDS011;50653;0.000;0.000;2022-08-25T01:17:52;4.40;;;4.20;;
14396;SDS011;50653;0.000;0.000;2022-08-25T01:20:21;5.13;;;4.73;;
14396;SDS011;50653;0.000;0.000;2022-08-25T01:22:49;5.10;;;4.80;;
14396;SDS011;50653;0.000;0.000;2022-08-25T01:25:24;5.17;;;4.87;;
14396;SDS011;50653;0.000;0.000;2022-08-25T01:27:55;5.30;;;5.10;;
14396;SDS011;50653;0.000;0.000;2022-08-25T01:30:21;5.70;;;5.50;;
14396;SDS011;50653;0.000;0.000;2022-08-25T01:32:48;5.30;;;5.00;;
14396;SDS011;50653;0.000;0.000;2022-08-25T01:35:13;4.67;;;4.47;;
14396;SDS011;50653;0.000;0.000;2022-08-25T01:37:39;7.90;;;7.30;;
14396;SDS011;50653;0.000;0.000;2022-08-25T01:40:05;6.10;;;5.80;;
14396;SDS011;50653;0.000;0.000;2022-08-25T01:42:45;6.43;;;5.00;;
14396;SDS011;50653;0.000;0.000;2022-08-25T01:45:18;5.27;;;4.97;;
14396;SDS011;50653;0.000;0.000;2022-08-25T01:47:44;5.30;;;5.07;;
14396;SDS011;50653;0.000;0.000;2022-08-25T01:50:10;5.07;;;4.77;;
14396;SDS011;50653;0.000;0.000;2022-08-25T01:52:38;7.70;;;7.10;;
14396;SDS011;50653;0.000;0.000;2022-08-25T01:55:20;5.80;;;5.50;;
14396;SDS011;50653;0.000;0.000;2022-08-25T01:57:46;4.50;;;4.30;;
14396;SDS011;50653;0.000;0.000;2022-08-25T02:00:13;5.97;;;5.50;;
14396;SDS011;50653;0.000;0.000;2022-08-25T02:02:44;6.03;;;5.83;;
14396;SDS011;50653;0.000;0.000;2022-08-25T02:05:11;5.57;;;5.17;;
14396;SDS011;50653;0.000;0.000;2022-08-25T02:07:38;5.50;;;5.30;;
14396;SDS011;50653;0.000;0.000;2022-08-25T02:10:06;6.27;;;5.87;;
14396;SDS011;50653;0.000;0.000;2022-08-25T02:12:33;8.10;;;6.10;;
14396;SDS011;50653;0.000;0.000;2022-08-25T02:15:00;5.20;;;5.00;;
14396;SDS011;50653;0.000;0.000;2022-08-25T02:17:27;6.50;;;5.90;;
14396;SDS011;50653;0.000;0.000;2022-08-25T02:19:53;5.50;;;5.30;;
14396;SDS011;50653;0.000;0.000;2022-08-25T02:22:21;9.37;;;8.57;;
14396;SDS011;50653;0.000;0.000;2022-08-25T02:24:47;13.87;;;12.53;;
14396;SDS011;50653;0.000;0.000;2022-08-25T02:27:13;7.00;;;6.60;;
14396;SDS011;50653;0.000;0.000;2022-08-25T02:29:39;5.60;;;5.40;;
14396;SDS011;50653;0.000;0.000;2022-08-25T02:32:05;6.43;;;5.97;;
14396;SDS011;50653;0.000;0.000;2022-08-25T02:34:31;5.23;;;5.03;;
14396;SDS011;50653;0.000;0.000;2022-08-25T02:36:56;7.13;;;5.50;;
14396;SDS011;50653;0.000;0.000;2022-08-25T02:39:22;6.70;;;6.30;;
14396;SDS011;50653;0.000;0.000;2022-08-25T02:41:48;7.20;;;6.70;;
14396;SDS011;50653;0.000;0.000;2022-08-25T02:44:14;6.10;;;5.67;;
14396;SDS011;50653;0.000;0.000;2022-08-25T02:46:40;6.07;;;5.87;;
14396;SDS011;50653;0.000;0.000;2022-08-25T02:49:06;4.90;;;4.70;;
14396;SDS011;50653;0.000;0.000;2022-08-25T02:51:32;6.83;;;6.53;;
14396;SDS011;50653;0.000;0.000;2022-08-25T02:53:59;6.07;;;5.73;;
14396;SDS011;50653;0.000;0.000;2022-08-25T02:56:26;5.37;;;5.07;;
14396;SDS011;50653;0.000;0.000;2022-08-25T02:58:52;6.37;;;6.07;;
14396;SDS011;50653;0.000;0.000;2022-08-25T03:01:18;5.70;;;5.40;;
14396;SDS011;50653;0.000;0.000;2022-08-25T03:03:46;7.43;;;6.73;;
14396;SDS011;50653;0.000;0.000;2022-08-25T03:06:13;6.23;;;5.93;;
14396;SDS011;50653;0.000;0.000;2022-08-25T03:08:43;5.40;;;5.10;;
14396;SDS011;50653;0.000;0.000;2022-08-25T03:11:09;7.53;;;6.80;;
14396;SDS011;50653;0.000;0.000;2022-08-25T03:13:35;7.20;;;6.70;;
14396;SDS011;50653;0.000;0.000;2022-08-25T03:16:03;5.43;;;5.13;;
14396;SDS011;50653;0.000;0.000;2022-08-25T03:18:29;5.97;;;5.67;;
14396;SDS011;50653;0.000;0.000;2022-08-25T03:20:55;7.03;;;6.50;;
14396;SDS011;50653;0.000;0.000;2022-08-25T03:23:21;7.63;;;7.20;;
14396;SDS011;50653;0.000;0.000;2022-08-25T03:25:46;5.57;;;5.20;;
14396;SDS011;50653;0.000;0.000;2022-08-25T03:28:30;6.10;;;5.63;;
14396;SDS011;50653;0.000;0.000;2022-08-25T03:30:58;6.43;;;5.90;;
14396;SDS011;50653;0.000;0.000;2022-08-25T03:33:25;6.53;;;6.23;;
14396;SDS011;50653;0.000;0.000;2022-08-25T03:35:52;6.10;;;5.77;;
14396;SDS011;50653;0.000;0.000;2022-08-25T03:38:19;6.37;;;6.07;;
14396;SDS011;50653;0.000;0.000;2022-08-25T03:40:46;5.83;;;5.57;;
14396;SDS011;50653;0.000;0.000;2022-08-25T03:43:13;6.63;;;6.23;;
14396;SDS011;50653;0.000;0.000;2022-08-25T03:45:42;10.43;;;8.10;;
14396;SDS011;50653;0.000;0.000;2022-08-25T03:48:08;7.93;;;7.20;;
14396;SDS011;50653;0.000;0.000;2022-08-25T03:50:34;6.67;;;6.33;;
14396;SDS011;50653;0.000;0.000;2022-08-25T03:53:01;6.70;;;6.40;;
14396;SDS011;50653;0.000;0.000;2022-08-25T03:55:27;6.93;;;6.43;;
14396;SDS011;50653;0.000;0.000;2022-08-25T03:57:53;7.70;;;7.20;;
14396;SDS011;50653;0.000;0.000;2022-08-25T04:00:20;7.03;;;6.60;;
14396;SDS011;50653;0.000;0.000;2022-08-25T04:02:47;7.30;;;6.80;;
14396;SDS011;50653;0.000;0.000;2022-08-25T04:05:12;10.63;;;7.00;;
14396;SDS011;50653;0.000;0.000;2022-08-25T04:07:39;8.97;;;8.17;;
14396;SDS011;50653;0.000;0.000;2022-08-25T04:10:05;7.17;;;6.73;;
14396;SDS011;50653;0.000;0.000;2022-08-25T04:12:32;20.77;;;9.70;;
14396;SDS011;50653;0.000;0.000;2022-08-25T04:14:58;18.13;;;7.67;;
14396;SDS011;50653;0.000;0.000;2022-08-25T04:17:24;10.90;;;8.90;;
14396;SDS011;50653;0.000;0.000;2022-08-25T04:19:49;9.17;;;8.17;;
14396;SDS011;50653;0.000;0.000;2022-08-25T04:22:15;17.53;;;8.30;;
14396;SDS011;50653;0.000;0.000;2022-08-25T04:24:41;7.83;;;7.20;;
14396;SDS011;50653;0.000;0.000;2022-08-25T04:27:07;7.67;;;6.97;;
14396;SDS011;50653;0.000;0.000;2022-08-25T04:29:33;8.80;;;8.00;;
14396;SDS011;50653;0.000;0.000;2022-08-25T04:31:58;9.20;;;8.13;;
14396;SDS011;50653;0.000;0.000;2022-08-25T04:34:25;13.20;;;7.90;;
14396;SDS011;50653;0.000;0.000;2022-08-25T04:36:51;8.27;;;7.20;;
14396;SDS011;50653;0.000;0.000;2022-08-25T04:39:18;10.33;;;7.20;;
14396;SDS011;50653;0.000;0.000;2022-08-25T04:41:48;9.40;;;8.20;;
14396;SDS011;50653;0.000;0.000;2022-08-25T04:44:15;17.33;;;8.53;;
14396;SDS011;50653;0.000;0.000;2022-08-25T04:46:41;17.03;;;8.50;;
14396;SDS011;50653;0.000;0.000;2022-08-25T04:49:07;8.40;;;7.70;;
14396;SDS011;50653;0.000;0.000;2022-08-25T04:51:35;9.83;;;8.63;;
14396;SDS011;50653;0.000;0.000;2022-08-25T04:54:05;9.33;;;8.37;;
14396;SDS011;50653;0.000;0.000;2022-08-25T04:56:32;7.30;;;6.90;;
14396;SDS011;50653;0.000;0.000;2022-08-25T04:59:02;10.13;;;8.50;;
14396;SDS011;50653;0.000;0.000;2022-08-25T05:01:30;8.73;;;8.00;;
14396;SDS011;50653;0.000;0.000;2022-08-25T05:03:57;7.63;;;7.13;;
14396;SDS011;50653;0.000;0.000;2022-08-25T05:06:25;7.30;;;6.73;;
14396;SDS011;50653;0.000;0.000;2022-08-25T05:08:52;11.40;;;7.17;;
14396;SDS011;50653;0.000;0.000;2022-08-25T05:11:20;8.40;;;7.57;;
14396;SDS011;50653;0.000;0.000;2022-08-25T05:13:47;9.40;;;6.73;;
14396;SDS011;50653;0.000;0.000;2022-08-25T05:16:14;7.93;;;7.33;;
14396;SDS011;50653;0.000;0.000;2022-08-25T05:18:41;8.10;;;7.40;;
14396;SDS011;50653;0.000;0.000;2022-08-25T05:21:08;13.20;;;7.00;;
14396;SDS011;50653;0.000;0.000;2022-08-25T05:23:36;7.13;;;6.67;;
14396;SDS011;50653;0.000;0.000;2022-08-25T05:26:03;8.47;;;7.90;;
14396;SDS011;50653;0.000;0.000;2022-08-25T05:28:30;10.43;;;8.07;;
14396;SDS011;50653;0.000;0.000;2022-08-25T05:30:57;17.03;;;8.73;;
14396;SDS011;50653;0.000;0.000;2022-08-25T05:33:24;7.90;;;7.37;;
14396;SDS011;50653;0.000;0.000;2022-08-25T05:35:50;8.27;;;7.77;;
14396;SDS011;50653;0.000;0.000;2022-08-25T05:38:15;8.13;;;7.07;;
14396;SDS011;50653;0.000;0.000;2022-08-25T05:40:41;8.50;;;7.80;;
14396;SDS011;50653;0.000;0.000;2022-08-25T05:43:07;9.43;;;8.43;;
14396;SDS011;50653;0.000;0.000;2022-08-25T05:45:33;18.23;;;7.77;;
14396;SDS011;50653;0.000;0.000;2022-08-25T05:47:59;30.40;;;11.07;;
14396;SDS011;50653;0.000;0.000;2022-08-25T05:50:25;15.10;;;9.60;;
14396;SDS011;50653;0.000;0.000;2022-08-25T05:52:51;22.60;;;9.13;;
14396;SDS011;50653;0.000;0.000;2022-08-25T05:55:17;8.20;;;7.13;;
14396;SDS011;50653;0.000;0.000;2022-08-25T05:57:43;7.07;;;6.60;;
14396;SDS011;50653;0.000;0.000;2022-08-25T06:00:09;7.30;;;6.70;;
14396;SDS011;50653;0.000;0.000;2022-08-25T06:02:38;6.30;;;5.80;;
14396;SDS011;50653;0.000;0.000;2022-08-25T06:05:05;10.70;;;6.47;;
14396;SDS011;50653;0.000;0.000;2022-08-25T06:07:32;17.30;;;8.70;;
14396;SDS011;50653;0.000;0.000;2022-08-25T06:09:57;13.53;;;8.00;;
14396;SDS011;50653;0.000;0.000;2022-08-25T06:12:23;7.97;;;7.20;;
14396;SDS011;50653;0.000;0.000;2022-08-25T06:14:49;12.00;;;6.73;;
14396;SDS011;50653;0.000;0.000;2022-08-25T06:17:15;10.17;;;7.10;;
14396;SDS011;50653;0.000;0.000;2022-08-25T06:19:41;11.43;;;7.20;;
14396;SDS011;50653;0.000;0.000;2022-08-25T06:22:08;6.33;;;5.80;;
14396;SDS011;50653;0.000;0.000;2022-08-25T06:24:34;6.93;;;6.20;;
14396;SDS011;50653;0.000;0.000;2022-08-25T06:26:59;7.00;;;6.50;;
14396;SDS011;50653;0.000;0.000;2022-08-25T06:29:25;6.50;;;5.87;;
14396;SDS011;50653;0.000;0.000;2022-08-25T06:31:51;6.73;;;6.30;;
14396;SDS011;50653;0.000;0.000;2022-08-25T06:34:17;11.10;;;6.60;;
14396;SDS011;50653;0.000;0.000;2022-08-25T06:36:43;7.00;;;6.47;;
14396;SDS011;50653;0.000;0.000;2022-08-25T06:39:09;6.17;;;5.77;;
14396;SDS011;50653;0.000;0.000;2022-08-25T06:41:35;14.23;;;6.07;;
14396;SDS011;50653;0.000;0.000;2022-08-25T06:44:01;6.00;;;5.47;;
14396;SDS011;50653;0.000;0.000;2022-08-25T06:46:27;6.03;;;5.67;;
14396;SDS011;50653;0.000;0.000;2022-08-25T06:48:54;5.70;;;5.30;;
14396;SDS011;50653;0.000;0.000;2022-08-25T06:51:21;11.43;;;7.77;;
14396;SDS011;50653;0.000;0.000;2022-08-25T06:53:49;8.00;;;6.87;;
14396;SDS011;50653;0.000;0.000;2022-08-25T06:56:15;6.23;;;5.77;;
14396;SDS011;50653;0.000;0.000;2022-08-25T06:58:43;7.47;;;6.70;;
14396;SDS011;50653;0.000;0.000;2022-08-25T07:01:11;7.70;;;5.83;;
14396;SDS011;50653;0.000;0.000;2022-08-25T07:03:46;7.93;;;6.73;;
14396;SDS011;50653;0.000;0.000;2022-08-25T07:06:12;6.67;;;6.30;;
14396;SDS011;50653;0.000;0.000;2022-08-25T07:08:39;5.00;;;4.73;;
14396;SDS011;50653;0.000;0.000;2022-08-25T07:11:05;6.83;;;6.43;;
14396;SDS011;50653;0.000;0.000;2022-08-25T07:13:31;5.77;;;5.40;;
14396;SDS011;50653;0.000;0.000;2022-08-25T07:15:57;7.60;;;6.40;;
14396;SDS011;50653;0.000;0.000;2022-08-25T07:18:23;7.67;;;6.83;;
14396;SDS011;50653;0.000;0.000;2022-08-25T07:20:50;6.43;;;5.70;;
14396;SDS011;50653;0.000;0.000;2022-08-25T07:23:17;6.97;;;4.63;;
14396;SDS011;50653;0.000;0.000;2022-08-25T07:25:44;4.90;;;4.70;;
14396;SDS011;50653;0.000;0.000;2022-08-25T07:28:11;5.87;;;5.43;;
14396;SDS011;50653;0.000;0.000;2022-08-25T07:30:37;4.77;;;4.57;;
14396;SDS011;50653;0.000;0.000;2022-08-25T07:33:03;4.90;;;4.50;;
14396;SDS011;50653;0.000;0.000;2022-08-25T07:35:29;4.90;;;4.70;;
14396;SDS011;50653;0.000;0.000;2022-08-25T07:37:56;5.10;;;4.80;;
14396;SDS011;50653;0.000;0.000;2022-08-25T07:40:26;5.30;;;5.00;;
14396;SDS011;50653;0.000;0.000;2022-08-25T07:42:55;4.77;;;4.50;;
14396;SDS011;50653;0.000;0.000;2022-08-25T07:45:23;4.67;;;4.47;;
14396;SDS011;50653;0.000;0.000;2022-08-25T07:48:16;5.50;;;5.20;;
14396;SDS011;50653;0.000;0.000;2022-08-25T07:50:44;4.93;;;4.73;;
14396;SDS011;50653;0.000;0.000;2022-08-25T07:53:11;4.87;;;4.57;;
14396;SDS011;50653;0.000;0.000;2022-08-25T07:55:37;4.27;;;3.93;;
14396;SDS011;50653;0.000;0.000;2022-08-25T07:58:06;5.27;;;4.97;;
14396;SDS011;50653;0.000;0.000;2022-08-25T08:00:33;5.50;;;5.00;;
14396;SDS011;50653;0.000;0.000;2022-08-25T08:03:01;6.20;;;5.87;;
14396;SDS011;50653;0.000;0.000;2022-08-25T08:05:29;5.00;;;4.80;;
14396;SDS011;50653;0.000;0.000;2022-08-25T08:07:55;6.10;;;5.70;;
14396;SDS011;50653;0.000;0.000;2022-08-25T08:10:21;6.27;;;5.97;;
14396;SDS011;50653;0.000;0.000;2022-08-25T08:12:49;4.90;;;4.70;;
14396;SDS011;50653;0.000;0.000;2022-08-25T08:15:15;5.30;;;5.00;;
14396;SDS011;50653;0.000;0.000;2022-08-25T08:17:41;2.30;;;2.20;;
14396;SDS011;50653;0.000;0.000;2022-08-25T08:20:07;8.23;;;5.83;;
14396;SDS011;50653;0.000;0.000;2022-08-25T08:22:34;6.50;;;5.80;;
14396;SDS011;50653;0.000;0.000;2022-08-25T08:25:01;5.17;;;4.77;;
14396;SDS011;50653;0.000;0.000;2022-08-25T08:27:26;4.30;;;4.10;;
14396;SDS011;50653;0.000;0.000;2022-08-25T08:29:52;5.80;;;5.30;;
14396;SDS011;50653;0.000;0.000;2022-08-25T08:32:18;6.67;;;6.30;;
14396;SDS011;50653;0.000;0.000;2022-08-25T08:34:44;5.70;;;5.30;;
14396;SDS011;50653;0.000;0.000;2022-08-25T08:37:11;8.67;;;6.80;;
14396;SDS011;50653;0.000;0.000;2022-08-25T08:39:37;12.97;;;6.10;;
14396;SDS011;50653;0.000;0.000;2022-08-25T08:44:56;4.60;;;4.40;;
14396;SDS011;50653;0.000;0.000;2022-08-25T08:50:44;5.47;;;5.07;;
14396;SDS011;50653;0.000;0.000;2022-08-25T08:53:42;3.97;;;3.77;;
14396;SDS011;50653;0.000;0.000;2022-08-25T08:56:17;5.57;;;5.07;;
14396;SDS011;50653;0.000;0.000;2022-08-25T08:58:48;5.23;;;5.03;;
14396;SDS011;50653;0.000;0.000;2022-08-25T09:01:21;6.50;;;5.03;;
14396;SDS011;50653;0.000;0.000;2022-08-25T09:06:43;4.47;;;4.17;;
14396;SDS011;50653;0.000;0.000;2022-08-25T09:09:11;5.13;;;4.80;;
14396;SDS011;50653;0.000;0.000;2022-08-25T09:20:13;5.67;;;5.10;;
14396;SDS011;50653;0.000;0.000;2022-08-25T09:33:43;8.40;;;6.80;;
14396;SDS011;50653;0.000;0.000;2022-08-25T09:36:09;6.13;;;5.73;;
14396;SDS011;50653;0.000;0.000;2022-08-25T09:38:38;7.30;;;6.90;;
14396;SDS011;50653;0.000;0.000;2022-08-25T09:41:05;6.57;;;6.07;;
14396;SDS011;50653;0.000;0.000;2022-08-25T09:43:41;8.03;;;7.43;;
14396;SDS011;50653;0.000;0.000;2022-08-25T09:46:22;8.10;;;7.23;;
14396;SDS011;50653;0.000;0.000;2022-08-25T09:48:50;8.60;;;7.70;;
14396;SDS011;50653;0.000;0.000;2022-08-25T09:51:26;9.40;;;7.70;;
14396;SDS011;50653;0.000;0.000;2022-08-25T09:53:57;9.70;;;8.70;;
14396;SDS011;50653;0.000;0.000;2022-08-25T09:56:32;9.13;;;8.10;;
14396;SDS011;50653;0.000;0.000;2022-08-25T10:01:56;10.53;;;8.73;;
14396;SDS011;50653;0.000;0.000;2022-08-25T10:04:26;9.13;;;8.20;;
14396;SDS011;50653;0.000;0.000;2022-08-25T10:06:53;15.80;;;8.93;;
14396;SDS011;50653;0.000;0.000;2022-08-25T10:09:30;11.87;;;10.87;;
14396;SDS011;50653;0.000;0.000;2022-08-25T10:11:59;10.77;;;9.00;;
14396;SDS011;50653;0.000;0.000;2022-08-25T10:14:33;11.53;;;10.17;;
14396;SDS011;50653;0.000;0.000;2022-08-25T10:17:21;11.93;;;10.17;;
14396;SDS011;50653;0.000;0.000;2022-08-25T10:19:50;20.43;;;11.43;;
14396;SDS011;50653;0.000;0.000;2022-08-25T10:22:25;12.07;;;11.03;;
14396;SDS011;50653;0.000;0.000;2022-08-25T10:24:59;13.63;;;10.87;;
14396;SDS011;50653;0.000;0.000;2022-08-25T10:27:29;11.83;;;10.87;;
14396;SDS011;50653;0.000;0.000;2022-08-25T10:30:12;14.73;;;9.23;;
14396;SDS011;50653;0.000;0.000;2022-08-25T10:32:55;12.60;;;10.37;;
14396;SDS011;50653;0.000;0.000;2022-08-25T10:35:46;7.17;;;6.67;;
14396;SDS011;50653;0.000;0.000;2022-08-25T10:38:41;11.13;;;9.40;;
14396;SDS011;50653;0.000;0.000;2022-08-25T10:53:06;16.47;;;10.20;;
14396;SDS011;50653;0.000;0.000;2022-08-25T10:55:46;12.17;;;10.30;;
14396;SDS011;50653;0.000;0.000;2022-08-25T10:58:47;11.33;;;10.43;;
14396;SDS011;50653;0.000;0.000;2022-08-25T11:09:15;12.20;;;9.70;;
14396;SDS011;50653;0.000;0.000;2022-08-25T11:11:49;13.97;;;12.40;;
14396;SDS011;50653;0.000;0.000;2022-08-25T11:14:23;18.83;;;12.73;;
14396;SDS011;50653;0.000;0.000;2022-08-25T11:19:35;16.83;;;12.40;;
14396;SDS011;50653;0.000;0.000;2022-08-25T11:27:05;11.50;;;10.10;;
14396;SDS011;50653;0.000;0.000;2022-08-25T11:29:38;14.93;;;12.33;;
14396;SDS011;50653;0.000;0.000;2022-08-25T11:32:05;27.77;;;13.37;;
14396;SDS011;50653;0.000;0.000;2022-08-25T11:34:32;15.33;;;10.40;;
14396;SDS011;50653;0.000;0.000;2022-08-25T11:37:02;11.77;;;10.53;;
14396;SDS011;50653;0.000;0.000;2022-08-25T11:39:40;13.83;;;10.80;;
14396;SDS011;50653;0.000;0.000;2022-08-25T11:50:54;17.27;;;11.57;;
14396;SDS011;50653;0.000;0.000;2022-08-25T11:53:25;13.50;;;9.60;;
14396;SDS011;50653;0.000;0.000;2022-08-25T11:55:54;11.97;;;10.83;;
14396;SDS011;50653;0.000;0.000;2022-08-25T11:58:41;12.07;;;10.73;;
14396;SDS011;50653;0.000;0.000;2022-08-25T12:10:06;11.87;;;10.67;;
14396;SDS011;50653;0.000;0.000;2022-08-25T12:25:53;15.40;;;12.27;;
14396;SDS011;50653;0.000;0.000;2022-08-25T12:28:34;11.23;;;9.80;;
14396;SDS011;50653;0.000;0.000;2022-08-25T12:31:22;12.60;;;10.33;;
14396;SDS011;50653;0.000;0.000;2022-08-25T12:34:01;17.87;;;11.67;;
14396;SDS011;50653;0.000;0.000;2022-08-25T12:36:54;16.70;;;12.50;;
14396;SDS011;50653;0.000;0.000;2022-08-25T12:39:29;19.83;;;14.60;;
14396;SDS011;50653;0.000;0.000;2022-08-25T12:42:03;17.03;;;11.33;;
14396;SDS011;50653;0.000;0.000;2022-08-25T12:47:38;14.10;;;11.93;;
14396;SDS011;50653;0.000;0.000;2022-08-25T12:50:26;17.87;;;12.50;;
14396;SDS011;50653;0.000;0.000;2022-08-25T12:52:53;14.23;;;12.40;;
14396;SDS011;50653;0.000;0.000;2022-08-25T12:55:23;15.77;;;12.43;;
14396;SDS011;50653;0.000;0.000;2022-08-25T12:57:51;31.67;;;13.20;;
14396;SDS011;50653;0.000;0.000;2022-08-25T13:00:24;14.90;;;12.37;;
14396;SDS011;50653;0.000;0.000;2022-08-25T13:11:14;17.50;;;12.93;;
14396;SDS011;50653;0.000;0.000;2022-08-25T13:22:51;15.10;;;13.13;;
14396;SDS011;50653;0.000;0.000;2022-08-25T13:25:22;18.47;;;13.23;;
14396;SDS011;50653;0.000;0.000;2022-08-25T13:27:51;28.70;;;14.90;;
14396;SDS011;50653;0.000;0.000;2022-08-25T13:30:29;16.50;;;12.53;;
14396;SDS011;50653;0.000;0.000;2022-08-25T13:32:58;22.03;;;14.63;;
14396;SDS011;50653;0.000;0.000;2022-08-25T13:35:26;17.90;;;11.90;;
14396;SDS011;50653;0.000;0.000;2022-08-25T13:38:00;27.30;;;15.07;;
14396;SDS011;50653;0.000;0.000;2022-08-25T13:40:37;16.00;;;13.47;;
14396;SDS011;50653;0.000;0.000;2022-08-25T13:43:05;13.90;;;12.63;;
14396;SDS011;50653;0.000;0.000;2022-08-25T13:45:33;21.87;;;14.00;;
14396;SDS011;50653;0.000;0.000;2022-08-25T13:48:02;16.03;;;13.60;;
14396;SDS011;50653;0.000;0.000;2022-08-25T13:50:33;14.47;;;12.83;;
14396;SDS011;50653;0.000;0.000;2022-08-25T13:53:06;23.37;;;15.27;;
14396;SDS011;50653;0.000;0.000;2022-08-25T13:58:14;21.47;;;14.63;;
14396;SDS011;50653;0.000;0.000;2022-08-25T14:00:43;20.93;;;13.67;;
14396;SDS011;50653;0.000;0.000;2022-08-25T14:03:30;23.17;;;14.37;;
14396;SDS011;50653;0.000;0.000;2022-08-25T14:06:07;21.90;;;13.40;;
14396;SDS011;50653;0.000;0.000;2022-08-25T14:08:41;17.70;;;14.00;;
14396;SDS011;50653;0.000;0.000;2022-08-25T14:14:12;23.30;;;14.03;;
14396;SDS011;50653;0.000;0.000;2022-08-25T14:17:00;23.50;;;12.80;;
14396;SDS011;50653;0.000;0.000;2022-08-25T14:19:29;16.90;;;14.00;;
14396;SDS011;50653;0.000;0.000;2022-08-25T14:21:56;21.90;;;13.67;;
14396;SDS011;50653;0.000;0.000;2022-08-25T14:24:26;16.40;;;13.33;;
14396;SDS011;50653;0.000;0.000;2022-08-25T14:26:58;17.67;;;14.03;;
14396;SDS011;50653;0.000;0.000;2022-08-25T14:29:24;17.10;;;14.10;;
14396;SDS011;50653;0.000;0.000;2022-08-25T14:31:49;15.83;;;13.90;;
14396;SDS011;50653;0.000;0.000;2022-08-25T14:34:20;22.50;;;14.10;;
14396;SDS011;50653;0.000;0.000;2022-08-25T14:36:49;17.33;;;13.90;;
14396;SDS011;50653;0.000;0.000;2022-08-25T14:39:15;15.17;;;13.73;;
14396;SDS011;50653;0.000;0.000;2022-08-25T14:41:42;20.33;;;13.50;;
14396;SDS011;50653;0.000;0.000;2022-08-25T14:44:10;17.63;;;12.90;;
14396;SDS011;50653;0.000;0.000;2022-08-25T14:46:39;16.90;;;12.57;;
14396;SDS011;50653;0.000;0.000;2022-08-25T14:49:09;16.17;;;11.90;;
14396;SDS011;50653;0.000;0.000;2022-08-25T14:51:37;21.20;;;12.90;;
14396;SDS011;50653;0.000;0.000;2022-08-25T14:54:05;17.63;;;12.87;;
14396;SDS011;50653;0.000;0.000;2022-08-25T14:56:37;14.40;;;12.70;;
14396;SDS011;50653;0.000;0.000;2022-08-25T14:59:03;12.97;;;11.60;;
14396;SDS011;50653;0.000;0.000;2022-08-25T15:01:29;16.13;;;12.10;;
14396;SDS011;50653;0.000;0.000;2022-08-25T15:04:09;16.73;;;12.13;;
14396;SDS011;50653;0.000;0.000;2022-08-25T15:06:37;15.73;;;11.37;;
14396;SDS011;50653;0.000;0.000;2022-08-25T15:09:04;17.17;;;12.17;;
14396;SDS011;50653;0.000;0.000;2022-08-25T15:11:34;18.00;;;12.43;;
14396;SDS011;50653;0.000;0.000;2022-08-25T15:14:02;16.70;;;11.63;;
14396;SDS011;50653;0.000;0.000;2022-08-25T15:16:29;15.40;;;11.90;;
14396;SDS011;50653;0.000;0.000;2022-08-25T15:18:57;17.30;;;11.50;;
14396;SDS011;50653;0.000;0.000;2022-08-25T15:21:23;20.80;;;11.80;;
14396;SDS011;50653;0.000;0.000;2022-08-25T15:23:49;13.50;;;11.50;;
14396;SDS011;50653;0.000;0.000;2022-08-25T15:26:15;18.80;;;12.13;;
14396;SDS011;50653;0.000;0.000;2022-08-25T15:28:43;20.17;;;11.87;;
14396;SDS011;50653;0.000;0.000;2022-08-25T15:31:12;12.53;;;11.23;;
14396;SDS011;50653;0.000;0.000;2022-08-25T15:33:39;14.90;;;12.23;;
14396;SDS011;50653;0.000;0.000;2022-08-25T15:36:06;15.97;;;12.07;;
14396;SDS011;50653;0.000;0.000;2022-08-25T15:38:40;20.23;;;12.37;;
14396;SDS011;50653;0.000;0.000;2022-08-25T15:41:08;13.03;;;11.70;;
14396;SDS011;50653;0.000;0.000;2022-08-25T15:43:35;16.20;;;11.80;;
14396;SDS011;50653;0.000;0.000;2022-08-25T15:46:02;13.77;;;12.47;;
14396;SDS011;50653;0.000;0.000;2022-08-25T15:48:29;20.47;;;11.33;;
14396;SDS011;50653;0.000;0.000;2022-08-25T15:50:56;14.73;;;11.00;;
14396;SDS011;50653;0.000;0.000;2022-08-25T15:53:24;12.47;;;11.37;;
14396;SDS011;50653;0.000;0.000;2022-08-25T15:55:51;14.80;;;12.20;;
14396;SDS011;50653;0.000;0.000;2022-08-25T15:58:17;11.93;;;10.80;;
14396;SDS011;50653;0.000;0.000;2022-08-25T16:00:43;15.03;;;11.63;;
14396;SDS011;50653;0.000;0.000;2022-08-25T16:03:10;13.53;;;11.97;;
14396;SDS011;50653;0.000;0.000;2022-08-25T16:05:37;12.03;;;10.80;;
14396;SDS011;50653;0.000;0.000;2022-08-25T16:08:04;12.57;;;11.10;;
14396;SDS011;50653;0.000;0.000;2022-08-25T16:10:37;11.90;;;10.90;;
14396;SDS011;50653;0.000;0.000;2022-08-25T16:13:06;11.43;;;10.43;;
14396;SDS011;50653;0.000;0.000;2022-08-25T16:15:32;14.80;;;9.73;;
14396;SDS011;50653;0.000;0.000;2022-08-25T16:18:00;10.70;;;9.90;;
14396;SDS011;50653;0.000;0.000;2022-08-25T16:20:27;14.30;;;11.13;;
14396;SDS011;50653;0.000;0.000;2022-08-25T16:22:55;9.43;;;8.73;;
14396;SDS011;50653;0.000;0.000;2022-08-25T16:25:24;16.50;;;10.70;;
14396;SDS011;50653;0.000;0.000;2022-08-25T16:27:50;10.87;;;9.77;;
14396;SDS011;50653;0.000;0.000;2022-08-25T16:30:15;13.70;;;10.37;;
14396;SDS011;50653;0.000;0.000;2022-08-25T16:32:41;12.63;;;10.30;;
14396;SDS011;50653;0.000;0.000;2022-08-25T16:35:07;12.57;;;10.50;;
14396;SDS011;50653;0.000;0.000;2022-08-25T16:37:33;12.57;;;10.07;;
14396;SDS011;50653;0.000;0.000;2022-08-25T16:39:59;11.37;;;10.23;;
14396;SDS011;50653;0.000;0.000;2022-08-25T16:42:26;11.10;;;10.00;;
14396;SDS011;50653;0.000;0.000;2022-08-25T16:44:52;16.50;;;10.60;;
14396;SDS011;50653;0.000;0.000;2022-08-25T16:47:18;10.83;;;9.60;;
14396;SDS011;50653;0.000;0.000;2022-08-25T16:49:44;11.67;;;10.60;;
14396;SDS011;50653;0.000;0.000;2022-08-25T16:52:10;12.73;;;10.30;;
14396;SDS011;50653;0.000;0.000;2022-08-25T16:54:55;14.53;;;9.93;;
14396;SDS011;50653;0.000;0.000;2022-08-25T16:57:40;10.67;;;9.97;;
14396;SDS011;50653;0.000;0.000;2022-08-25T17:00:12;11.87;;;10.67;;